createdAt,value
2023-03-03T00:02:06.161Z,2.40
2023-03-03T00:04:33.681Z,2.40
2023-03-03T00:07:01.199Z,2.40
2023-03-03T00:09:28.703Z,2.40
2023-03-03T00:12:00.532Z,2.30
2023-03-03T00:14:33.267Z,2.20
2023-03-03T00:17:12.583Z,2.20
2023-03-03T00:19:41.203Z,2.10
2023-03-03T00:22:31.432Z,2.20
2023-03-03T00:25:21.039Z,2.20
2023-03-03T00:27:48.622Z,2.20
2023-03-03T00:30:27.716Z,2.20
2023-03-03T00:32:56.027Z,2.20
2023-03-03T00:35:35.390Z,2.20
2023-03-03T00:38:18.754Z,2.20
2023-03-03T00:40:48.056Z,2.20
2023-03-03T00:43:25.227Z,2.20
2023-03-03T00:45:57.820Z,2.10
2023-03-03T00:48:43.250Z,2.10
2023-03-03T00:51:34.335Z,2.10
2023-03-03T00:54:01.963Z,2.10
2023-03-03T00:56:29.465Z,2.00
2023-03-03T00:58:57.802Z,2.10
2023-03-03T01:01:28.157Z,2.10
2023-03-03T01:03:55.981Z,2.10
2023-03-03T01:06:23.840Z,2.10
2023-03-03T01:08:51.853Z,2.10
2023-03-03T01:11:25.837Z,2.10
2023-03-03T01:13:53.502Z,2.00
2023-03-03T01:16:21.339Z,2.00
2023-03-03T01:18:48.998Z,1.90
2023-03-03T01:21:16.514Z,2.00
2023-03-03T01:23:44.136Z,1.90
2023-03-03T01:26:11.711Z,2.00
2023-03-03T01:28:39.805Z,2.00
2023-03-03T01:31:07.565Z,2.00
2023-03-03T01:33:36.395Z,2.10
2023-03-03T01:36:04.667Z,2.00
2023-03-03T01:38:35.084Z,2.00
2023-03-03T01:41:03.194Z,2.00
2023-03-03T01:43:33.300Z,2.00
2023-03-03T01:46:00.707Z,1.90
2023-03-03T01:48:42.584Z,2.00
2023-03-03T01:51:25.955Z,2.00
2023-03-03T01:54:12.426Z,1.90
2023-03-03T01:56:41.440Z,1.80
2023-03-03T01:59:25.706Z,1.80
2023-03-03T02:01:53.455Z,1.90
2023-03-03T02:04:22.000Z,1.80
2023-03-03T02:06:58.101Z,1.70
2023-03-03T02:10:04.635Z,1.70
2023-03-03T02:12:39.268Z,1.70
2023-03-03T02:15:37.564Z,1.70
2023-03-03T02:18:18.926Z,1.70
2023-03-03T02:20:58.930Z,1.70
2023-03-03T02:23:49.736Z,1.70
2023-03-03T02:26:23.476Z,1.70
2023-03-03T02:28:56.139Z,1.60
2023-03-03T02:31:27.697Z,1.60
2023-03-03T02:33:56.445Z,1.60
2023-03-03T02:36:34.414Z,1.60
2023-03-03T02:39:20.554Z,1.60
2023-03-03T02:42:20.322Z,1.60
2023-03-03T02:44:52.249Z,1.60
2023-03-03T02:47:19.920Z,1.60
2023-03-03T02:49:47.483Z,1.50
2023-03-03T02:52:17.980Z,1.50
2023-03-03T02:54:47.409Z,1.40
2023-03-03T02:57:15.061Z,1.30
2023-03-03T02:59:42.574Z,1.30
2023-03-03T03:02:15.067Z,1.30
2023-03-03T03:04:43.092Z,1.30
2023-03-03T03:07:13.140Z,1.30
2023-03-03T03:09:40.827Z,1.30
2023-03-03T03:12:09.151Z,1.30
2023-03-03T03:14:37.484Z,1.40
2023-03-03T03:17:06.594Z,1.40
2023-03-03T03:19:34.198Z,1.50
2023-03-03T03:22:03.500Z,1.50
2023-03-03T03:24:34.055Z,1.50
2023-03-03T03:27:05.058Z,1.50
2023-03-03T03:29:33.323Z,1.60
2023-03-03T03:32:01.301Z,1.60
2023-03-03T03:34:28.979Z,1.60
2023-03-03T03:36:57.047Z,1.70
2023-03-03T03:39:26.929Z,1.70
2023-03-03T03:41:55.047Z,1.70
2023-03-03T03:44:23.925Z,1.70
2023-03-03T03:46:51.567Z,1.70
2023-03-03T03:49:20.853Z,1.80
2023-03-03T03:51:49.583Z,1.80
2023-03-03T03:54:20.267Z,1.80
2023-03-03T03:56:48.497Z,1.90
2023-03-03T03:59:16.088Z,1.80
2023-03-03T04:01:43.645Z,1.80
2023-03-03T04:04:11.194Z,1.80
2023-03-03T04:06:39.769Z,1.80
2023-03-03T04:09:07.753Z,1.80
2023-03-03T04:11:35.858Z,1.80
2023-03-03T04:14:05.487Z,1.80
2023-03-03T04:16:33.980Z,1.90
2023-03-03T04:19:01.512Z,1.90
2023-03-03T04:21:29.790Z,1.90
2023-03-03T04:23:59.886Z,2.00
2023-03-03T04:26:30.945Z,2.00
2023-03-03T04:29:01.578Z,2.00
2023-03-03T04:31:29.679Z,1.90
2023-03-03T04:33:57.322Z,2.00
2023-03-03T04:36:25.476Z,2.10
2023-03-03T04:38:53.288Z,2.10
2023-03-03T04:41:21.369Z,2.10
2023-03-03T04:43:49.002Z,2.10
2023-03-03T04:46:16.674Z,2.10
2023-03-03T04:48:44.256Z,2.10
2023-03-03T04:51:12.163Z,2.20
2023-03-03T04:53:39.745Z,2.20
2023-03-03T04:56:09.131Z,2.20
2023-03-03T04:58:37.372Z,2.20
2023-03-03T05:01:05.367Z,2.20
2023-03-03T05:03:34.098Z,2.20
2023-03-03T05:06:01.640Z,2.20
2023-03-03T05:08:29.134Z,2.20
2023-03-03T05:10:56.849Z,2.20
2023-03-03T05:13:24.380Z,2.20
2023-03-03T05:15:55.398Z,2.20
2023-03-03T05:18:24.869Z,2.30
2023-03-03T05:20:52.827Z,2.20
2023-03-03T05:23:21.672Z,2.20
2023-03-03T05:25:50.414Z,2.30
2023-03-03T05:28:18.567Z,2.30
2023-03-03T05:30:46.772Z,2.40
2023-03-03T05:33:16.761Z,2.40
2023-03-03T05:35:44.786Z,2.40
2023-03-03T05:38:12.631Z,2.40
2023-03-03T05:40:40.256Z,2.50
2023-03-03T05:43:07.797Z,2.50
2023-03-03T05:45:35.667Z,2.50
2023-03-03T05:48:04.834Z,2.50
2023-03-03T05:50:32.755Z,2.50
2023-03-03T05:53:01.372Z,2.60
2023-03-03T05:55:28.920Z,2.60
2023-03-03T05:57:56.546Z,2.60
2023-03-03T06:00:24.224Z,2.60
2023-03-03T06:02:51.861Z,2.60
2023-03-03T06:05:19.357Z,2.70
2023-03-03T06:07:46.918Z,2.60
2023-03-03T06:10:14.509Z,2.60
2023-03-03T06:12:45.086Z,2.60
2023-03-03T06:15:12.619Z,2.60
2023-03-03T06:17:40.233Z,2.60
2023-03-03T06:20:08.732Z,2.50
2023-03-03T06:22:36.224Z,2.60
2023-03-03T06:25:04.057Z,2.60
2023-03-03T06:27:31.548Z,2.60
2023-03-03T06:29:59.117Z,2.60
2023-03-03T06:32:26.673Z,2.60
2023-03-03T06:34:54.205Z,2.50
2023-03-03T06:37:21.694Z,2.60
2023-03-03T06:39:49.206Z,2.60
2023-03-03T06:42:16.733Z,2.60
2023-03-03T06:44:44.608Z,2.60
2023-03-03T06:47:12.209Z,2.70
2023-03-03T06:49:39.874Z,2.80
2023-03-03T06:52:22.330Z,2.80
2023-03-03T06:54:50.920Z,2.90
2023-03-03T06:57:31.400Z,2.80
2023-03-03T07:00:20.366Z,2.80
2023-03-03T07:03:00.144Z,2.90
2023-03-03T07:05:28.977Z,2.90
2023-03-03T07:07:57.243Z,2.80
2023-03-03T07:10:29.068Z,2.80
2023-03-03T07:13:16.367Z,2.90
2023-03-03T07:15:44.717Z,3.00
2023-03-03T07:18:25.947Z,3.00
2023-03-03T07:20:53.465Z,3.00
2023-03-03T07:23:26.693Z,3.00
2023-03-03T07:25:54.362Z,3.00
2023-03-03T07:28:28.613Z,2.90
2023-03-03T07:30:58.195Z,2.90
2023-03-03T07:33:29.842Z,3.00
2023-03-03T07:35:59.478Z,3.10
2023-03-03T07:38:43.829Z,3.10
2023-03-03T07:41:15.243Z,3.00
2023-03-03T07:43:54.898Z,3.10
2023-03-03T07:46:42.880Z,3.10
2023-03-03T07:49:21.471Z,3.20
2023-03-03T07:51:59.867Z,3.30
2023-03-03T07:54:40.287Z,3.30
2023-03-03T07:57:36.835Z,3.40
2023-03-03T08:00:16.781Z,3.40
2023-03-03T08:03:15.190Z,3.50
2023-03-03T08:05:46.741Z,3.50
2023-03-03T08:08:36.743Z,3.50
2023-03-03T08:11:05.820Z,3.50
2023-03-03T08:13:33.230Z,3.50
2023-03-03T08:16:09.953Z,3.50
2023-03-03T08:18:47.703Z,3.60
2023-03-03T08:21:20.964Z,3.50
2023-03-03T08:23:53.482Z,3.50
2023-03-03T08:26:22.890Z,3.50
2023-03-03T08:28:51.580Z,3.60
2023-03-03T08:31:31.070Z,3.70
2023-03-03T08:34:06.231Z,3.70
2023-03-03T08:36:34.788Z,3.70
2023-03-03T08:39:05.182Z,3.70
2023-03-03T08:41:32.766Z,3.80
2023-03-03T08:44:00.276Z,3.70
2023-03-03T08:46:28.634Z,3.60
2023-03-03T08:48:56.225Z,3.60
2023-03-03T08:51:25.185Z,3.50
2023-03-03T08:53:52.757Z,3.50
2023-03-03T08:56:20.302Z,3.50
2023-03-03T08:59:01.548Z,3.60
2023-03-03T09:01:32.778Z,3.50
2023-03-03T09:04:00.837Z,3.60
2023-03-03T09:06:28.453Z,3.60
2023-03-03T09:08:56.388Z,3.60
2023-03-03T09:11:29.552Z,3.50
2023-03-03T09:14:11.353Z,3.50
2023-03-03T09:16:53.243Z,3.50
2023-03-03T09:19:34.840Z,3.40
2023-03-03T09:22:23.907Z,3.50
2023-03-03T09:24:57.034Z,3.40
2023-03-03T09:27:37.809Z,3.40
2023-03-03T09:30:44.794Z,3.50
2023-03-03T09:33:43.426Z,3.50
2023-03-03T09:36:38.517Z,3.50
2023-03-03T09:39:36.706Z,3.60
2023-03-03T09:42:20.546Z,3.70
2023-03-03T09:45:21.781Z,3.80
2023-03-03T09:48:20.089Z,3.70
2023-03-03T09:51:29.441Z,3.70
2023-03-03T09:54:20.540Z,3.90
2023-03-03T09:57:16.521Z,4.00
2023-03-03T10:00:24.517Z,4.10
2023-03-03T10:03:46.309Z,4.20
2023-03-03T10:06:33.207Z,4.20
2023-03-03T10:09:37.033Z,4.20
2023-03-03T10:12:10.544Z,4.20
2023-03-03T10:15:19.875Z,4.20
2023-03-03T10:17:53.841Z,4.20
2023-03-03T10:20:53.565Z,4.20
2023-03-03T10:23:59.063Z,4.20
2023-03-03T10:27:12.988Z,4.30
2023-03-03T10:30:06.510Z,4.50
2023-03-03T10:32:56.008Z,4.70
2023-03-03T10:36:05.849Z,4.80
2023-03-03T10:39:03.345Z,5.00
2023-03-03T10:42:15.821Z,5.20
2023-03-03T10:45:31.885Z,5.30
2023-03-03T10:48:28.680Z,5.40
2023-03-03T10:51:07.000Z,5.60
2023-03-03T10:53:59.371Z,5.70
2023-03-03T10:56:55.353Z,5.80
2023-03-03T10:59:54.902Z,5.90
2023-03-03T11:03:00.707Z,6.10
2023-03-03T11:05:51.374Z,6.20
2023-03-03T11:09:14.060Z,6.30
2023-03-03T11:12:32.724Z,6.40
2023-03-03T11:15:24.041Z,6.50
2023-03-03T11:18:25.597Z,6.60
2023-03-03T11:21:41.516Z,6.60
2023-03-03T11:25:01.293Z,6.70
2023-03-03T11:27:56.388Z,6.70
2023-03-03T11:30:43.660Z,6.70
2023-03-03T11:33:34.038Z,6.70
2023-03-03T11:36:35.229Z,6.80
2023-03-03T11:39:07.593Z,6.90
2023-03-03T11:42:18.153Z,7.00
2023-03-03T11:44:52.788Z,6.90
2023-03-03T11:47:48.658Z,6.80
2023-03-03T11:50:48.961Z,6.90
2023-03-03T11:53:49.352Z,7.10
2023-03-03T11:56:42.618Z,7.20
2023-03-03T11:59:30.081Z,7.20
2023-03-03T12:02:15.977Z,7.30
2023-03-03T12:04:59.205Z,7.40
2023-03-03T12:07:57.750Z,7.40
2023-03-03T12:11:13.104Z,7.40
2023-03-03T12:13:58.098Z,7.40
2023-03-03T12:17:17.336Z,7.50
2023-03-03T12:20:09.636Z,7.60
2023-03-03T12:22:57.784Z,7.80
2023-03-03T12:25:42.296Z,7.90
2023-03-03T12:28:38.417Z,8.00
2023-03-03T12:31:23.938Z,8.10
2023-03-03T12:34:12.271Z,8.10
2023-03-03T12:37:05.165Z,8.10
2023-03-03T12:39:48.926Z,8.20
2023-03-03T12:42:25.213Z,8.30
2023-03-03T12:45:21.319Z,8.30
2023-03-03T12:47:57.528Z,8.30
2023-03-03T12:51:06.793Z,8.40
2023-03-03T12:54:08.440Z,8.50
2023-03-03T12:56:54.926Z,8.50
2023-03-03T12:59:33.217Z,8.50
2023-03-03T13:02:25.716Z,8.50
2023-03-03T13:05:38.226Z,8.60
2023-03-03T13:08:31.838Z,8.70
2023-03-03T13:11:36.773Z,8.80
2023-03-03T13:14:41.304Z,8.90
2023-03-03T13:17:27.705Z,9.00
2023-03-03T13:20:03.209Z,9.00
2023-03-03T13:22:58.739Z,9.00
2023-03-03T13:25:50.594Z,9.10
2023-03-03T13:28:26.185Z,9.10
2023-03-03T13:31:11.850Z,9.20
2023-03-03T13:33:48.882Z,9.20
2023-03-03T13:36:18.139Z,9.10
2023-03-03T13:38:53.865Z,9.10
2023-03-03T13:41:38.924Z,9.10
2023-03-03T13:44:42.521Z,9.20
2023-03-03T13:47:50.674Z,9.30
2023-03-03T13:50:45.040Z,9.20
2023-03-03T13:53:57.396Z,9.30
2023-03-03T13:57:16.614Z,9.30
2023-03-03T14:00:06.648Z,9.40
2023-03-03T14:03:18.268Z,9.40
2023-03-03T14:05:50.327Z,9.40
2023-03-03T14:08:55.925Z,9.40
2023-03-03T14:11:31.392Z,9.40
2023-03-03T14:14:20.100Z,9.50
2023-03-03T14:17:14.415Z,9.60
2023-03-03T14:20:03.256Z,9.60
2023-03-03T14:23:03.644Z,9.60
2023-03-03T14:26:03.953Z,9.70
2023-03-03T14:28:49.821Z,9.70
2023-03-03T14:31:31.694Z,9.70
2023-03-03T14:34:38.901Z,9.70
2023-03-03T14:37:46.691Z,9.80
2023-03-03T14:40:22.555Z,9.90
2023-03-03T14:42:52.841Z,9.90
2023-03-03T14:45:36.231Z,10.00
2023-03-03T14:48:25.740Z,10.10
2023-03-03T14:51:29.197Z,10.00
2023-03-03T14:53:58.079Z,10.00
2023-03-03T14:56:33.287Z,10.00
2023-03-03T14:59:23.574Z,10.00
2023-03-03T15:02:24.692Z,9.90
2023-03-03T15:05:23.994Z,9.90
2023-03-03T15:08:14.713Z,9.80
2023-03-03T15:10:45.837Z,9.90
2023-03-03T15:13:22.121Z,10.00
2023-03-03T15:15:58.936Z,10.10
2023-03-03T15:18:28.968Z,10.10
2023-03-03T15:21:08.917Z,10.10
2023-03-03T15:24:21.863Z,10.10
2023-03-03T15:27:01.970Z,10.20
2023-03-03T15:29:44.656Z,10.20
2023-03-03T15:33:17.188Z,10.10
2023-03-03T15:35:56.548Z,10.10
2023-03-03T15:38:56.556Z,10.10
2023-03-03T15:41:35.150Z,10.10
2023-03-03T15:44:19.951Z,10.10
2023-03-03T15:47:40.618Z,10.00
2023-03-03T15:50:27.193Z,10.10
2023-03-03T15:53:29.758Z,10.00
2023-03-03T15:56:35.730Z,10.00
2023-03-03T15:59:32.744Z,10.00
2023-03-03T16:02:24.889Z,9.90
2023-03-03T16:05:32.726Z,9.90
2023-03-03T16:08:23.256Z,9.90
2023-03-03T16:11:04.732Z,9.90
2023-03-03T16:13:59.163Z,9.90
2023-03-03T16:16:52.779Z,9.80
2023-03-03T16:19:34.944Z,9.70
2023-03-03T16:22:41.290Z,9.60
2023-03-03T16:25:40.426Z,9.50
2023-03-03T16:28:16.363Z,9.50
2023-03-03T16:31:29.630Z,9.40
2023-03-03T16:34:21.813Z,9.30
2023-03-03T16:37:03.302Z,9.20
2023-03-03T16:40:22.122Z,9.20
2023-03-03T16:43:18.552Z,9.10
2023-03-03T16:45:46.802Z,9.00
2023-03-03T16:48:50.582Z,8.90
2023-03-03T16:51:53.025Z,8.90
2023-03-03T16:54:54.148Z,8.80
2023-03-03T16:57:53.430Z,8.70
2023-03-03T17:00:40.569Z,8.60
2023-03-03T17:03:34.699Z,8.50
2023-03-03T17:06:50.142Z,8.40
2023-03-03T17:09:41.678Z,8.30
2023-03-03T17:12:33.181Z,8.20
2023-03-03T17:15:16.605Z,8.10
2023-03-03T17:18:11.357Z,8.00
2023-03-03T17:20:49.185Z,8.00
2023-03-03T17:24:05.442Z,7.80
2023-03-03T17:27:03.515Z,7.70
2023-03-03T17:29:55.143Z,7.60
2023-03-03T17:33:06.537Z,7.50
2023-03-03T17:35:55.914Z,7.40
2023-03-03T17:38:48.197Z,7.30
2023-03-03T17:41:41.887Z,7.20
2023-03-03T17:44:27.408Z,7.30
2023-03-03T17:47:01.556Z,7.20
2023-03-03T17:50:05.054Z,7.10
2023-03-03T17:52:43.280Z,7.00
2023-03-03T17:55:37.127Z,6.90
2023-03-03T17:58:44.802Z,6.80
2023-03-03T18:01:46.470Z,6.80
2023-03-03T18:04:29.834Z,6.70
2023-03-03T18:07:49.492Z,6.70
2023-03-03T18:11:03.083Z,6.60
2023-03-03T18:13:59.768Z,6.50
2023-03-03T18:17:24.126Z,6.50
2023-03-03T18:20:48.346Z,6.40
2023-03-03T18:23:39.566Z,6.30
2023-03-03T18:26:41.949Z,6.20
2023-03-03T18:29:22.121Z,6.20
2023-03-03T18:31:52.636Z,6.10
2023-03-03T18:34:20.014Z,6.10
2023-03-03T18:37:03.764Z,6.10
2023-03-03T18:39:45.922Z,6.00
2023-03-03T18:42:16.361Z,5.90
2023-03-03T18:44:45.165Z,5.90
2023-03-03T18:47:14.927Z,5.80
2023-03-03T18:50:31.356Z,5.70
2023-03-03T18:53:10.850Z,5.70
2023-03-03T18:55:50.996Z,5.60
2023-03-03T18:58:18.361Z,5.50
2023-03-03T19:01:32.128Z,5.40
2023-03-03T19:04:22.753Z,5.50
2023-03-03T19:07:08.757Z,5.50
2023-03-03T19:10:03.523Z,5.40
2023-03-03T19:12:54.389Z,5.40
2023-03-03T19:15:53.896Z,5.40
2023-03-03T19:18:27.680Z,5.30
2023-03-03T19:21:33.644Z,5.30
2023-03-03T19:24:24.087Z,5.30
2023-03-03T19:27:09.581Z,5.20
2023-03-03T19:29:46.019Z,5.20
2023-03-03T19:32:57.869Z,5.20
2023-03-03T19:35:53.982Z,5.20
2023-03-03T19:38:45.606Z,5.20
2023-03-03T19:41:24.832Z,5.20
2023-03-03T19:44:51.197Z,5.10
2023-03-03T19:47:44.459Z,5.10
2023-03-03T19:50:26.414Z,4.90
2023-03-03T19:53:35.593Z,4.90
2023-03-03T19:56:24.512Z,5.00
2023-03-03T19:59:13.765Z,4.90
2023-03-03T20:02:15.141Z,4.90
2023-03-03T20:05:02.982Z,4.90
2023-03-03T20:07:57.696Z,4.90
2023-03-03T20:10:43.064Z,4.90
2023-03-03T20:13:37.618Z,4.70
2023-03-03T20:16:40.665Z,4.70
2023-03-03T20:19:56.036Z,4.80
2023-03-03T20:22:46.301Z,4.80
2023-03-03T20:25:29.540Z,4.80
2023-03-03T20:28:29.784Z,4.80
2023-03-03T20:31:17.343Z,4.70
2023-03-03T20:34:43.990Z,4.70
2023-03-03T20:38:02.553Z,4.60
2023-03-03T20:40:45.640Z,4.60
2023-03-03T20:43:46.089Z,4.60
2023-03-03T20:46:44.914Z,4.60
2023-03-03T20:49:28.807Z,4.50
2023-03-03T20:52:40.585Z,4.40
2023-03-03T20:55:25.384Z,4.40
2023-03-03T20:58:15.041Z,4.30
2023-03-03T21:01:14.664Z,4.30
2023-03-03T21:03:47.669Z,4.30
2023-03-03T21:06:19.020Z,4.20
2023-03-03T21:08:56.129Z,4.10
2023-03-03T21:11:32.783Z,4.10
2023-03-03T21:14:24.282Z,4.20
2023-03-03T21:16:56.520Z,4.10
2023-03-03T21:19:36.603Z,4.10
2023-03-03T21:22:04.633Z,4.00
2023-03-03T21:24:56.666Z,4.10
2023-03-03T21:27:34.296Z,4.10
2023-03-03T21:30:08.484Z,4.00
2023-03-03T21:32:48.036Z,4.00
2023-03-03T21:35:23.261Z,4.00
2023-03-03T21:37:55.208Z,4.00
2023-03-03T21:40:31.739Z,4.00
2023-03-03T21:43:00.135Z,4.10
2023-03-03T21:45:29.962Z,4.00
2023-03-03T21:47:59.270Z,4.10
2023-03-03T21:50:32.030Z,4.10
2023-03-03T21:52:59.505Z,4.00
2023-03-03T21:55:27.009Z,4.00
2023-03-03T21:57:54.499Z,4.00
2023-03-03T22:00:22.388Z,4.00
2023-03-03T22:02:49.910Z,4.00
2023-03-03T22:05:17.378Z,3.90
2023-03-03T22:07:44.895Z,3.90
2023-03-03T22:10:12.620Z,3.90
2023-03-03T22:12:40.113Z,3.80
2023-03-03T22:15:08.028Z,3.80
2023-03-03T22:17:35.512Z,3.80
2023-03-03T22:20:03.038Z,3.80
2023-03-03T22:22:30.505Z,3.80
2023-03-03T22:24:58.017Z,3.70
2023-03-03T22:27:25.520Z,3.60
2023-03-03T22:29:53.026Z,3.50
2023-03-03T22:32:20.556Z,3.40
2023-03-03T22:34:48.253Z,3.50
2023-03-03T22:37:15.772Z,3.50
2023-03-03T22:39:43.253Z,3.50
2023-03-03T22:42:11.097Z,3.50
2023-03-03T22:44:38.726Z,3.50
2023-03-03T22:47:06.256Z,3.40
2023-03-03T22:49:33.800Z,3.40
2023-03-03T22:52:02.508Z,3.40
2023-03-03T22:54:30.035Z,3.40
2023-03-03T22:56:57.596Z,3.30
2023-03-03T22:59:25.100Z,3.20
2023-03-03T23:01:52.578Z,3.20
2023-03-03T23:04:20.113Z,3.20
2023-03-03T23:06:47.729Z,3.20
2023-03-03T23:09:15.253Z,3.20
2023-03-03T23:11:42.739Z,3.10
2023-03-03T23:14:10.268Z,3.10
2023-03-03T23:16:37.805Z,3.10
2023-03-03T23:19:05.342Z,3.10
2023-03-03T23:21:32.963Z,3.10
2023-03-03T23:24:01.143Z,3.10
2023-03-03T23:26:28.897Z,3.00
2023-03-03T23:28:56.629Z,3.00
2023-03-03T23:31:26.151Z,2.90
2023-03-03T23:33:53.705Z,2.80
2023-03-03T23:36:21.236Z,2.80
2023-03-03T23:38:48.812Z,2.80
2023-03-03T23:41:16.374Z,2.80
2023-03-03T23:43:43.899Z,2.80
2023-03-03T23:46:11.570Z,2.70
2023-03-03T23:48:39.109Z,2.70
2023-03-03T23:51:06.612Z,2.70
2023-03-03T23:53:34.244Z,2.70
2023-03-03T23:56:02.069Z,2.60
2023-03-03T23:58:29.621Z,2.60
